Weather History for Wise, VA

Change the Weather History Date:

Saturday, September 22, 2012

  Actual Average Record
Temperature  
Mean Temperature 64 °F -  
Max Temperature 73 °F 70 °F 120 °F (1997)
Min Temperature 55 °F 51 °F 41 °F (1999)
Degree Days  
Heating Degree Days 1    
Growing Degree Days 14 (Base 50)    
Moisture  
Dew Point 53 °F    
Average Humidity 68    
Maximum Humidity 88    
Minimum Humidity 47    
Precipitation  
Precipitation 0.00 in - - ()
Sea Level Pressure  
Sea Level Pressure 30.05 in    
Wind  
Wind Speed 11 mph (WSW)    
Max Wind Speed 18 mph    
Max Gust Speed 26 mph    
Visibility 10 miles    
Events      
Averages and records for this station are not official NWS values.
T = Trace of Precipitation, MM = Missing Value Source: NWS Daily Summary

Daily Weather History Graph

Daily Weather History Graph

Search for Another Location

Airport:

Trip Planner

Search our weather history database for the weather conditions in past years. The results will help you decide how hot, cold, wet, or windy it might be!

Date:

Astronomy

Sep. 22, 2012 Rise Set
Actual Time 7:18 AM EDT 7:26 PM EDT
Civil Twilight 6:52 AM EDT 7:52 PM EDT
Nautical Twilight 6:22 AM EDT 8:22 PM EDT
Astronomical Twilight 5:51 AM EDT 8:53 PM EDT
Moon 2:26 PM EDT (9/22) No Moon Set
Length of Visible Light 12h 59m
Length of Day
12h 07m
Waxing Crescent, 48% of the Moon is Illuminated
Sep 22
Waxing Crescent
Sep 22
First Quarter
Sep 29
Full
Oct 8
Last Quarter
Oct 15
New

Hourly Weather History & Observations

Time (EDT) Temp. Dew Point Humidity Pressure Visibility Wind Dir Wind Speed Gust Speed Precip Events Conditions
12:15 AM 62.6 °F 55.4 °F 77% 30.02 in 10.0 mi SSW 11.5 mph 16.1 mph N/A   Mostly Cloudy
12:35 AM 62.6 °F 55.4 °F 77% 30.02 in 10.0 mi SSW 10.4 mph - N/A   Scattered Clouds
12:55 AM 64.4 °F 55.4 °F 73% 30.01 in 10.0 mi SSW 10.4 mph - N/A   Mostly Cloudy
1:15 AM 64.4 °F 55.4 °F 73% 30.02 in 10.0 mi SSW 13.8 mph 20.7 mph N/A   Overcast
1:35 AM 64.4 °F 53.6 °F 68% 30.02 in 10.0 mi SSW 9.2 mph 16.1 mph N/A   Overcast
1:55 AM 64.4 °F 55.4 °F 73% 30.02 in 10.0 mi SW 11.5 mph 23.0 mph N/A   Mostly Cloudy
2:15 AM 64.4 °F 55.4 °F 73% 30.02 in 10.0 mi SW 12.7 mph 24.2 mph N/A   Mostly Cloudy
2:35 AM 64.4 °F 55.4 °F 73% 30.02 in 10.0 mi SW 18.4 mph 23.0 mph N/A   Overcast
2:55 AM 64.4 °F 55.4 °F 73% 30.02 in 10.0 mi SW 16.1 mph 25.3 mph N/A   Overcast
3:15 AM 64.4 °F 55.4 °F 73% 30.02 in 10.0 mi SW 15.0 mph 23.0 mph N/A   Scattered Clouds
3:35 AM 64.4 °F 55.4 °F 73% 30.02 in 10.0 mi SW 16.1 mph 23.0 mph N/A   Clear
3:55 AM 62.6 °F 55.4 °F 77% 30.02 in 10.0 mi SW 11.5 mph 20.7 mph N/A   Scattered Clouds
4:15 AM 62.6 °F 55.4 °F 77% 30.02 in 10.0 mi SSW 12.7 mph 20.7 mph N/A   Mostly Cloudy
4:35 AM 62.6 °F 55.4 °F 77% 30.02 in 10.0 mi SSW 11.5 mph 19.6 mph N/A   Overcast
4:55 AM 62.6 °F 55.4 °F 77% 30.02 in 10.0 mi SW 11.5 mph 25.3 mph N/A   Scattered Clouds
5:15 AM 62.6 °F 55.4 °F 77% 30.02 in 10.0 mi SW 12.7 mph 19.6 mph N/A   Clear
5:35 AM 62.6 °F 55.4 °F 77% 30.02 in 10.0 mi SW 11.5 mph 19.6 mph N/A   Clear
5:55 AM 62.6 °F 55.4 °F 77% 30.02 in 10.0 mi SW 15.0 mph - N/A   Clear
6:15 AM 62.6 °F 55.4 °F 77% 30.02 in 10.0 mi SW 10.4 mph 19.6 mph N/A   Clear
6:35 AM 60.8 °F 55.4 °F 82% 30.02 in 10.0 mi SW 10.4 mph 20.7 mph N/A   Clear
6:55 AM 60.8 °F 55.4 °F 82% 30.02 in 10.0 mi SW 11.5 mph - N/A   Scattered Clouds
7:15 AM 60.8 °F 55.4 °F 82% 30.02 in 10.0 mi SW 9.2 mph 16.1 mph N/A   Scattered Clouds
7:35 AM 60.8 °F 55.4 °F 82% 30.03 in 10.0 mi WSW 10.4 mph - N/A   Scattered Clouds
7:55 AM 60.8 °F 57.2 °F 88% 30.03 in 10.0 mi SW 11.5 mph 16.1 mph N/A   Mostly Cloudy
8:15 AM 60.8 °F 57.2 °F 88% 30.03 in 10.0 mi SW 10.4 mph - N/A   Overcast
8:35 AM 62.6 °F 59.0 °F 88% 30.03 in 10.0 mi SW 11.5 mph 16.1 mph N/A   Overcast
8:55 AM 62.6 °F 59.0 °F 88% 30.03 in 10.0 mi SSW 11.5 mph 16.1 mph N/A   Overcast
9:15 AM 62.6 °F 59.0 °F 88% 30.03 in 10.0 mi SSW 12.7 mph 17.3 mph N/A   Mostly Cloudy
9:35 AM 62.6 °F 59.0 °F 88% 30.03 in 10.0 mi SW 10.4 mph - N/A   Scattered Clouds
9:55 AM 64.4 °F 59.0 °F 83% 30.03 in 10.0 mi SW 15.0 mph 20.7 mph N/A   Scattered Clouds
10:15 AM 64.4 °F 59.0 °F 83% 30.02 in 10.0 mi SW 15.0 mph - N/A   Scattered Clouds
10:55 AM 68.0 °F 59.0 °F 73% 30.03 in 10.0 mi SW 18.4 mph 25.3 mph N/A   Overcast
11:15 AM 68.0 °F 59.0 °F 73% 30.03 in 10.0 mi SW 17.3 mph 26.5 mph N/A   Mostly Cloudy
11:35 AM 68.0 °F 59.0 °F 73% 30.03 in 10.0 mi SW 13.8 mph 25.3 mph N/A   Scattered Clouds
11:55 AM 69.8 °F 60.8 °F 73% 30.03 in 10.0 mi SSW 12.7 mph 21.9 mph N/A   Scattered Clouds
12:15 PM 69.8 °F 59.0 °F 68% 30.03 in 10.0 mi SSW 16.1 mph 23.0 mph N/A   Scattered Clouds
12:35 PM 69.8 °F 59.0 °F 68% 30.03 in 10.0 mi WSW 12.7 mph 18.4 mph N/A   Clear
12:55 PM 71.6 °F 59.0 °F 64% 30.02 in 10.0 mi WSW 15.0 mph 23.0 mph N/A   Scattered Clouds
1:15 PM 71.6 °F 60.8 °F 69% 30.02 in 10.0 mi WSW 15.0 mph - N/A   Scattered Clouds
1:35 PM 71.6 °F 57.2 °F 60% 30.02 in 10.0 mi SSW 16.1 mph 21.9 mph N/A   Mostly Cloudy
2:15 PM 73.4 °F 55.4 °F 53% 30.01 in 10.0 mi West 12.7 mph - N/A   Mostly Cloudy
2:35 PM 73.4 °F 53.6 °F 50% 30.01 in 10.0 mi WNW 6.9 mph 20.7 mph N/A   Mostly Cloudy
2:55 PM 73.4 °F 53.6 °F 50% 30.01 in 10.0 mi West 12.7 mph 20.7 mph N/A   Scattered Clouds
3:15 PM 73.4 °F 51.8 °F 47% 30.02 in 10.0 mi West 12.7 mph 19.6 mph N/A   Scattered Clouds
3:35 PM 69.8 °F 51.8 °F 53% 30.02 in 10.0 mi West 11.5 mph 16.1 mph N/A   Mostly Cloudy
3:55 PM 71.6 °F 53.6 °F 53% 30.02 in 10.0 mi West 11.5 mph - N/A   Overcast
4:15 PM 73.4 °F 53.6 °F 50% 30.02 in 10.0 mi West 9.2 mph 21.9 mph N/A   Mostly Cloudy
4:35 PM 71.6 °F 53.6 °F 53% 30.03 in 10.0 mi WSW 13.8 mph 18.4 mph N/A   Scattered Clouds
4:55 PM 71.6 °F 53.6 °F 53% 30.03 in 10.0 mi WNW 12.7 mph 18.4 mph N/A   Scattered Clouds
5:15 PM 69.8 °F 51.8 °F 53% 30.04 in 10.0 mi WNW 9.2 mph 17.3 mph N/A   Mostly Cloudy
5:35 PM 69.8 °F 51.8 °F 53% 30.04 in 10.0 mi West 9.2 mph - N/A   Scattered Clouds
5:55 PM 68.0 °F 51.8 °F 56% 30.05 in 10.0 mi WNW 10.4 mph 17.3 mph N/A   Clear
6:15 PM 68.0 °F 50.0 °F 52% 30.07 in 10.0 mi WNW 10.4 mph - N/A   Clear
6:35 PM 68.0 °F 50.0 °F 52% 30.07 in 10.0 mi WNW 11.5 mph 17.3 mph N/A   Scattered Clouds
6:55 PM 64.4 °F 50.0 °F 59% 30.09 in 10.0 mi NW 8.1 mph - N/A   Mostly Cloudy
7:15 PM 62.6 °F 50.0 °F 63% 30.09 in 10.0 mi WNW 6.9 mph - N/A   Scattered Clouds
7:35 PM 62.6 °F 46.4 °F 55% 30.10 in 10.0 mi WNW 8.1 mph - N/A   Clear
7:55 PM 60.8 °F 44.6 °F 55% 30.11 in 10.0 mi WNW 8.1 mph - N/A   Clear
8:15 PM 59.0 °F 44.6 °F 59% 30.11 in 10.0 mi WNW 4.6 mph - N/A   Clear
8:35 PM 59.0 °F 44.6 °F 59% 30.12 in 10.0 mi WNW 3.5 mph - N/A   Clear
8:55 PM 59.0 °F 44.6 °F 59% 30.12 in 10.0 mi West 4.6 mph - N/A   Clear
9:15 PM 57.2 °F 44.6 °F 63% 30.12 in 10.0 mi West 4.6 mph - N/A   Clear
9:35 PM 55.4 °F 44.6 °F 67% 30.12 in 10.0 mi West 4.6 mph - N/A   Clear
9:55 PM 57.2 °F 42.8 °F 59% 30.13 in 10.0 mi WNW 4.6 mph - N/A   Clear
10:15 PM 57.2 °F 42.8 °F 59% 30.13 in 10.0 mi WNW 3.5 mph - N/A   Clear
10:35 PM 59.0 °F 42.8 °F 55% 30.14 in 10.0 mi West 3.5 mph - N/A   Clear
10:55 PM 57.2 °F 42.8 °F 59% 30.14 in 10.0 mi WNW 3.5 mph - N/A   Clear
11:15 PM 55.4 °F 42.8 °F 63% 30.14 in 10.0 mi Calm Calm - N/A   Clear
11:35 PM 55.4 °F 42.8 °F 63% 30.14 in 10.0 mi WNW 4.6 mph - N/A   Clear
11:55 PM 55.4 °F 42.8 °F 63% 30.14 in 10.0 mi NW 4.6 mph - N/A   Clear